createdAt,value
2022-12-09T00:02:24.632Z,13.80
2022-12-09T00:04:53.614Z,14.20
2022-12-09T00:07:22.222Z,13.40
2022-12-09T00:09:51.131Z,12.67
2022-12-09T00:12:19.330Z,13.13
2022-12-09T00:14:49.316Z,12.83
2022-12-09T00:17:17.477Z,12.90
2022-12-09T00:19:47.030Z,12.50
2022-12-09T00:22:15.287Z,11.40
2022-12-09T00:24:44.120Z,11.90
2022-12-09T00:27:12.287Z,11.80
2022-12-09T00:29:41.063Z,11.17
2022-12-09T00:32:11.381Z,11.90
2022-12-09T00:34:39.667Z,11.57
2022-12-09T00:37:08.278Z,11.43
2022-12-09T00:39:36.515Z,11.23
2022-12-09T00:42:05.264Z,11.60
2022-12-09T00:44:33.813Z,11.87
2022-12-09T00:47:01.945Z,12.20
2022-12-09T00:49:32.120Z,10.83
2022-12-09T00:52:00.342Z,11.93
2022-12-09T00:54:28.973Z,11.33
2022-12-09T00:56:59.630Z,12.43
2022-12-09T00:59:28.143Z,11.60
2022-12-09T01:01:57.076Z,11.07
2022-12-09T01:04:25.972Z,11.80
2022-12-09T01:06:56.090Z,11.20
2022-12-09T01:09:24.321Z,11.63
2022-12-09T01:11:53.228Z,12.30
2022-12-09T01:14:21.357Z,12.37
2022-12-09T01:16:49.998Z,11.73
2022-12-09T01:19:18.841Z,11.93
2022-12-09T01:21:47.225Z,12.20
2022-12-09T01:24:17.322Z,11.93
2022-12-09T01:26:45.602Z,11.37
2022-12-09T01:29:14.289Z,11.33
2022-12-09T01:31:42.823Z,11.43
2022-12-09T01:34:11.507Z,10.70
2022-12-09T01:36:39.652Z,11.10
2022-12-09T01:39:08.343Z,10.80
2022-12-09T01:41:38.345Z,10.50
2022-12-09T01:44:14.498Z,10.70
2022-12-09T01:46:44.331Z,10.97
2022-12-09T01:49:17.716Z,11.20
2022-12-09T01:51:51.497Z,11.47
2022-12-09T01:54:20.392Z,11.30
2022-12-09T01:56:50.664Z,11.13
2022-12-09T01:59:19.302Z,11.70
2022-12-09T02:01:51.873Z,11.47
2022-12-09T02:04:20.533Z,11.73
2022-12-09T02:06:49.631Z,11.50
2022-12-09T02:09:18.630Z,11.63
2022-12-09T02:12:02.765Z,9.97
2022-12-09T02:14:36.297Z,11.53
2022-12-09T02:17:26.885Z,11.27
2022-12-09T02:20:04.220Z,11.27
2022-12-09T02:22:38.461Z,10.87
2022-12-09T02:25:16.405Z,9.80
2022-12-09T02:27:50.394Z,9.30
2022-12-09T02:30:21.967Z,9.17
2022-12-09T02:33:23.753Z,9.13
2022-12-09T02:35:58.036Z,9.60
2022-12-09T02:38:29.486Z,9.77
2022-12-09T02:41:03.395Z,9.57
2022-12-09T02:43:35.488Z,10.27
2022-12-09T02:46:06.172Z,10.20
2022-12-09T02:48:38.989Z,10.10
2022-12-09T02:51:12.350Z,10.23
2022-12-09T02:53:43.405Z,10.17
2022-12-09T02:56:13.195Z,10.70
2022-12-09T02:58:41.786Z,10.60
2022-12-09T03:01:22.089Z,10.37
2022-12-09T03:03:53.599Z,11.00
2022-12-09T03:06:32.152Z,11.73
2022-12-09T03:09:05.397Z,11.57
2022-12-09T03:11:33.983Z,11.57
2022-12-09T03:14:08.134Z,11.43
2022-12-09T03:16:39.134Z,10.67
2022-12-09T03:19:11.558Z,10.87
2022-12-09T03:21:46.261Z,11.67
2022-12-09T03:24:18.358Z,10.83
2022-12-09T03:26:47.597Z,10.83
2022-12-09T03:29:20.448Z,10.77
2022-12-09T03:31:50.076Z,10.97
2022-12-09T03:34:21.405Z,10.47
2022-12-09T03:36:53.222Z,10.53
2022-12-09T03:39:26.265Z,11.53
2022-12-09T03:41:59.026Z,10.53
2022-12-09T03:44:33.236Z,11.10
2022-12-09T03:47:02.027Z,11.13
2022-12-09T03:49:30.219Z,10.53
2022-12-09T03:52:06.049Z,14.40
2022-12-09T03:54:39.383Z,12.40
2022-12-09T03:57:15.495Z,12.97
2022-12-09T03:59:52.669Z,13.67
2022-12-09T04:02:22.087Z,12.33
2022-12-09T04:04:50.469Z,12.97
2022-12-09T04:07:20.767Z,12.90
2022-12-09T04:09:49.095Z,12.57
2022-12-09T04:12:17.816Z,12.00
2022-12-09T04:14:46.033Z,12.40
2022-12-09T04:17:15.410Z,11.40
2022-12-09T04:19:46.194Z,11.50
2022-12-09T04:22:14.755Z,11.70
2022-12-09T04:24:44.750Z,11.27
2022-12-09T04:27:13.256Z,12.00
2022-12-09T04:29:42.244Z,11.20
2022-12-09T04:32:11.149Z,10.90
2022-12-09T04:34:39.468Z,10.93
2022-12-09T04:37:08.147Z,10.33
2022-12-09T04:39:36.681Z,10.27
2022-12-09T04:42:06.888Z,10.53
2022-12-09T04:44:35.112Z,9.70
2022-12-09T04:47:04.788Z,9.73
2022-12-09T04:49:33.043Z,9.53
2022-12-09T04:52:02.378Z,9.27
2022-12-09T04:54:30.537Z,10.23
2022-12-09T04:56:59.239Z,9.83
2022-12-09T04:59:30.241Z,10.60
2022-12-09T05:01:59.272Z,9.90
2022-12-09T05:04:28.206Z,10.17
2022-12-09T05:06:57.117Z,10.10
2022-12-09T05:09:25.853Z,12.00
2022-12-09T05:11:54.851Z,9.53
2022-12-09T05:14:23.110Z,10.13
2022-12-09T05:16:53.041Z,10.17
2022-12-09T05:19:21.901Z,10.63
2022-12-09T05:21:50.843Z,10.10
2022-12-09T05:24:19.057Z,10.90
2022-12-09T05:26:48.593Z,10.57
2022-12-09T05:29:22.375Z,10.77
2022-12-09T05:31:53.443Z,10.93
2022-12-09T05:34:22.211Z,10.47
2022-12-09T05:36:51.997Z,10.50
2022-12-09T05:39:21.104Z,10.83
2022-12-09T05:41:50.156Z,10.70
2022-12-09T05:44:18.384Z,11.50
2022-12-09T05:46:47.149Z,13.03
2022-12-09T05:49:17.646Z,14.17
2022-12-09T05:51:46.080Z,14.13
2022-12-09T05:54:14.467Z,15.80
2022-12-09T05:56:47.894Z,17.97
2022-12-09T05:59:17.725Z,16.80
2022-12-09T06:01:46.366Z,15.23
2022-12-09T06:04:16.515Z,15.13
2022-12-09T06:06:45.158Z,13.47
2022-12-09T06:09:14.079Z,13.43
2022-12-09T06:11:43.130Z,13.50
2022-12-09T06:14:13.267Z,12.80
2022-12-09T06:16:41.729Z,13.87
2022-12-09T06:19:13.057Z,12.00
2022-12-09T06:21:43.822Z,13.03
2022-12-09T06:24:12.389Z,13.43
2022-12-09T06:26:40.664Z,12.20
2022-12-09T06:29:09.437Z,13.80
2022-12-09T06:31:38.095Z,12.33
2022-12-09T06:34:06.905Z,12.77
2022-12-09T06:36:35.148Z,12.47
2022-12-09T06:39:10.492Z,12.77
2022-12-09T06:41:41.367Z,13.20
2022-12-09T06:44:10.456Z,13.80
2022-12-09T06:46:39.134Z,13.90
2022-12-09T06:49:07.439Z,13.60
2022-12-09T06:51:36.926Z,13.13
2022-12-09T06:54:07.294Z,11.90
2022-12-09T06:56:36.728Z,12.60
2022-12-09T06:59:07.828Z,12.60
2022-12-09T07:01:37.667Z,12.63
2022-12-09T07:04:08.480Z,11.60
2022-12-09T07:06:39.259Z,12.20
2022-12-09T07:09:12.170Z,11.47
2022-12-09T07:11:42.356Z,11.90
2022-12-09T07:14:12.273Z,11.30
2022-12-09T07:16:41.428Z,11.57
2022-12-09T07:19:17.048Z,12.03
2022-12-09T07:21:45.570Z,12.50
2022-12-09T07:24:15.623Z,12.43
2022-12-09T07:26:44.614Z,10.83
2022-12-09T07:29:13.459Z,12.20
2022-12-09T07:31:42.286Z,11.13
2022-12-09T07:34:12.706Z,11.60
2022-12-09T07:36:41.383Z,12.20
2022-12-09T07:39:14.061Z,10.93
2022-12-09T07:41:44.670Z,12.30
2022-12-09T07:44:13.520Z,11.70
2022-12-09T07:46:42.870Z,12.23
2022-12-09T07:49:12.830Z,10.90
2022-12-09T07:51:42.623Z,10.93
2022-12-09T07:54:13.051Z,11.80
2022-12-09T07:56:41.586Z,11.80
2022-12-09T07:59:14.717Z,12.20
2022-12-09T08:01:43.861Z,11.77
2022-12-09T08:04:13.412Z,12.33
2022-12-09T08:06:42.379Z,12.10
2022-12-09T08:09:14.999Z,11.10
2022-12-09T08:11:44.327Z,11.53
2022-12-09T08:14:14.485Z,10.70
2022-12-09T08:16:44.763Z,11.53
2022-12-09T08:19:13.615Z,10.63
2022-12-09T08:21:42.562Z,11.07
2022-12-09T08:24:13.231Z,11.97
2022-12-09T08:26:42.534Z,11.40
2022-12-09T08:29:13.044Z,11.77
2022-12-09T08:31:44.362Z,10.30
2022-12-09T08:34:14.430Z,11.40
2022-12-09T08:36:44.426Z,11.20
2022-12-09T08:39:13.374Z,11.40
2022-12-09T08:41:44.058Z,11.33
2022-12-09T08:44:14.482Z,11.30
2022-12-09T08:46:46.442Z,12.27
2022-12-09T08:49:18.350Z,11.87
2022-12-09T08:51:48.402Z,11.33
2022-12-09T08:54:17.360Z,12.27
2022-12-09T08:56:46.819Z,11.50
2022-12-09T08:59:17.712Z,12.17
2022-12-09T09:01:47.702Z,11.87
2022-12-09T09:04:18.579Z,11.63
2022-12-09T09:06:50.713Z,13.13
2022-12-09T09:09:20.544Z,11.53
2022-12-09T09:11:49.034Z,12.17
2022-12-09T09:14:18.400Z,12.40
2022-12-09T09:16:49.053Z,12.93
2022-12-09T09:19:20.664Z,12.23
2022-12-09T09:21:49.962Z,12.87
2022-12-09T09:24:21.461Z,13.17
2022-12-09T09:26:52.372Z,13.57
2022-12-09T09:29:22.842Z,13.70
2022-12-09T09:31:55.149Z,13.17
2022-12-09T09:34:25.123Z,13.77
2022-12-09T09:36:53.456Z,14.17
2022-12-09T09:39:23.232Z,13.73
2022-12-09T09:41:54.481Z,14.60
2022-12-09T09:44:33.178Z,14.97
2022-12-09T09:47:05.359Z,14.67
2022-12-09T09:49:38.552Z,14.17
2022-12-09T09:52:12.804Z,15.67
2022-12-09T09:54:41.594Z,15.03
2022-12-09T09:57:16.592Z,14.67
2022-12-09T10:00:00.765Z,14.20
2022-12-09T10:02:55.976Z,14.87
2022-12-09T10:05:29.261Z,13.77
2022-12-09T10:08:05.161Z,15.13
2022-12-09T10:10:45.787Z,14.73
2022-12-09T10:13:26.432Z,15.57
2022-12-09T10:16:02.737Z,13.53
2022-12-09T10:18:37.169Z,14.60
2022-12-09T10:21:23.159Z,14.03
2022-12-09T10:23:52.056Z,15.07
2022-12-09T10:26:24.654Z,15.57
2022-12-09T10:28:59.405Z,17.13
2022-12-09T10:31:30.473Z,16.17
2022-12-09T10:34:00.811Z,15.30
2022-12-09T10:36:35.721Z,16.60
2022-12-09T10:39:06.105Z,16.77
2022-12-09T10:42:02.168Z,16.80
2022-12-09T10:44:31.140Z,17.17
2022-12-09T10:47:01.563Z,17.60
2022-12-09T10:49:32.410Z,17.43
2022-12-09T10:52:02.353Z,19.20
2022-12-09T10:54:39.387Z,19.47
2022-12-09T10:57:24.507Z,20.37
2022-12-09T11:00:02.015Z,19.03
2022-12-09T11:02:33.705Z,17.47
2022-12-09T11:05:26.567Z,18.83
2022-12-09T11:07:57.672Z,17.97
2022-12-09T11:10:28.536Z,17.57
2022-12-09T11:13:06.357Z,16.50
2022-12-09T11:15:39.698Z,16.53
2022-12-09T11:18:17.714Z,17.00
2022-12-09T11:20:57.063Z,16.93
2022-12-09T11:23:26.299Z,18.57
2022-12-09T11:25:57.757Z,18.00
2022-12-09T11:28:29.352Z,16.43
2022-12-09T11:33:52.476Z,16.43
2022-12-09T11:36:29.790Z,14.87
2022-12-09T11:39:17.319Z,15.17
2022-12-09T11:42:12.979Z,14.20
2022-12-09T11:44:52.347Z,13.50
2022-12-09T11:47:27.835Z,14.50
2022-12-09T11:50:01.977Z,13.73
2022-12-09T11:52:32.486Z,13.83
2022-12-09T11:55:16.449Z,14.07
2022-12-09T11:57:52.397Z,13.90
2022-12-09T12:00:26.074Z,14.27
2022-12-09T12:03:03.948Z,15.53
2022-12-09T12:05:38.112Z,15.10
2022-12-09T12:08:17.433Z,15.63
2022-12-09T12:10:51.773Z,14.27
2022-12-09T12:13:23.546Z,14.90
2022-12-09T12:16:03.082Z,14.13
2022-12-09T12:18:37.482Z,15.03
2022-12-09T12:21:31.776Z,13.63
2022-12-09T12:24:37.447Z,14.50
2022-12-09T12:27:20.106Z,15.77
2022-12-09T12:29:56.651Z,13.63
2022-12-09T12:32:38.582Z,14.37
2022-12-09T12:35:38.134Z,14.07
2022-12-09T12:38:19.488Z,12.70
2022-12-09T12:40:56.471Z,14.60
2022-12-09T12:44:01.237Z,14.30
2022-12-09T12:46:43.047Z,13.03
2022-12-09T12:49:31.676Z,12.57
2022-12-09T12:52:26.396Z,12.57
2022-12-09T12:55:07.229Z,13.07
2022-12-09T12:57:46.959Z,12.10
2022-12-09T13:00:22.040Z,12.10
2022-12-09T13:03:01.846Z,11.37
2022-12-09T13:05:37.880Z,12.13
2022-12-09T13:08:10.669Z,11.47
2022-12-09T13:10:43.742Z,11.23
2022-12-09T13:13:19.518Z,11.00
2022-12-09T13:15:52.217Z,10.73
2022-12-09T13:18:23.483Z,11.40
2022-12-09T13:20:54.394Z,11.13
2022-12-09T13:23:37.451Z,10.27
2022-12-09T13:26:25.686Z,10.23
2022-12-09T13:29:00.862Z,10.07
2022-12-09T13:31:31.935Z,9.23
2022-12-09T13:34:16.808Z,9.57
2022-12-09T13:36:47.382Z,8.70
2022-12-09T13:39:55.626Z,9.63
2022-12-09T13:43:01.918Z,9.60
2022-12-09T13:45:34.719Z,9.83
2022-12-09T13:48:12.000Z,9.50
2022-12-09T13:50:57.676Z,9.37
2022-12-09T13:53:31.192Z,9.90
2022-12-09T13:56:02.636Z,10.90
2022-12-09T13:59:05.526Z,9.17
2022-12-09T14:01:43.896Z,9.20
2022-12-09T14:04:17.316Z,9.47
2022-12-09T14:07:09.868Z,9.13
2022-12-09T14:09:46.718Z,9.07
2022-12-09T14:12:16.122Z,9.93
2022-12-09T14:14:53.967Z,9.40
2022-12-09T14:18:01.604Z,9.57
2022-12-09T14:20:34.319Z,9.93
2022-12-09T14:23:18.048Z,10.37
2022-12-09T14:26:09.155Z,10.87
2022-12-09T14:28:42.621Z,9.83
2022-12-09T14:31:10.792Z,11.13
2022-12-09T14:33:42.585Z,10.50
2022-12-09T14:36:27.179Z,9.77
2022-12-09T14:41:59.139Z,9.90
2022-12-09T14:44:32.940Z,10.13
2022-12-09T14:47:16.846Z,10.13
2022-12-09T14:49:49.268Z,10.43
2022-12-09T14:52:25.108Z,10.53
2022-12-09T14:54:56.700Z,10.33
2022-12-09T14:57:34.732Z,10.60
2022-12-09T15:00:03.576Z,10.10
2022-12-09T15:02:32.857Z,9.50
2022-12-09T15:05:02.825Z,10.90
2022-12-09T15:07:34.789Z,10.33
2022-12-09T15:10:06.905Z,10.70
2022-12-09T15:12:38.650Z,10.90
2022-12-09T15:15:13.901Z,11.00
2022-12-09T15:17:44.842Z,11.40
2022-12-09T15:20:25.215Z,10.80
2022-12-09T15:22:59.983Z,11.20
2022-12-09T15:25:28.294Z,9.50
2022-12-09T15:28:02.523Z,9.93
2022-12-09T15:30:33.765Z,10.00
2022-12-09T15:33:02.705Z,9.27
2022-12-09T15:35:33.252Z,10.20
2022-12-09T15:38:08.657Z,10.03
2022-12-09T15:40:38.994Z,9.53
2022-12-09T15:43:11.211Z,8.97
2022-12-09T15:45:44.477Z,9.43
2022-12-09T15:48:16.424Z,9.10
2022-12-09T15:50:49.868Z,8.90
2022-12-09T15:53:23.202Z,8.67
2022-12-09T15:55:54.371Z,8.53
2022-12-09T15:58:26.996Z,8.87
2022-12-09T16:00:56.699Z,9.33
2022-12-09T16:03:28.207Z,8.07
2022-12-09T16:06:00.084Z,8.63
2022-12-09T16:08:35.125Z,9.73
2022-12-09T16:11:04.345Z,11.13
2022-12-09T16:13:32.705Z,12.20
2022-12-09T16:16:04.192Z,12.77
2022-12-09T16:18:36.176Z,14.23
2022-12-09T16:21:25.267Z,12.53
2022-12-09T16:24:06.085Z,12.33
2022-12-09T16:26:38.626Z,10.03
2022-12-09T16:29:15.099Z,10.30
2022-12-09T16:31:43.937Z,15.47
2022-12-09T16:34:21.929Z,13.23
2022-12-09T16:36:56.066Z,14.40
2022-12-09T16:39:35.964Z,11.87
2022-12-09T16:42:04.111Z,10.87
2022-12-09T16:44:35.604Z,9.43
2022-12-09T16:47:17.254Z,9.97
2022-12-09T16:49:47.704Z,9.63
2022-12-09T16:52:20.116Z,10.63
2022-12-09T16:54:51.258Z,10.97
2022-12-09T16:57:21.880Z,10.40
2022-12-09T16:59:50.963Z,11.77
2022-12-09T17:02:28.427Z,12.30
2022-12-09T17:04:56.665Z,11.40
2022-12-09T17:07:25.331Z,11.33
2022-12-09T17:09:54.878Z,11.37
2022-12-09T17:12:23.111Z,13.47
2022-12-09T17:14:51.872Z,12.43
2022-12-09T17:17:20.109Z,12.37
2022-12-09T17:19:48.708Z,12.53
2022-12-09T17:22:18.563Z,13.37
2022-12-09T17:24:47.190Z,14.03
2022-12-09T17:27:16.677Z,13.90
2022-12-09T17:29:46.926Z,13.57
2022-12-09T17:32:15.203Z,13.67
2022-12-09T17:34:43.532Z,13.40
2022-12-09T17:37:12.864Z,13.20
2022-12-09T17:39:42.478Z,13.93
2022-12-09T17:42:11.104Z,13.10
2022-12-09T17:44:40.744Z,12.70
2022-12-09T17:47:09.353Z,12.70
2022-12-09T17:49:37.444Z,13.07
2022-12-09T17:52:05.924Z,12.23
2022-12-09T17:54:34.713Z,10.77
2022-12-09T17:57:02.811Z,11.63
2022-12-09T17:59:32.593Z,11.37
2022-12-09T18:02:04.047Z,11.57
2022-12-09T18:04:33.254Z,11.47
2022-12-09T18:07:01.430Z,12.13
2022-12-09T18:09:30.087Z,12.33
2022-12-09T18:11:58.186Z,12.87
2022-12-09T18:14:27.606Z,12.30
2022-12-09T18:16:55.733Z,12.83
2022-12-09T18:19:25.741Z,12.20
2022-12-09T18:21:56.159Z,12.10
2022-12-09T18:24:24.770Z,11.77
2022-12-09T18:26:52.918Z,11.67
2022-12-09T18:29:21.632Z,12.20
2022-12-09T18:31:54.190Z,11.43
2022-12-09T18:34:24.167Z,12.23
2022-12-09T18:36:53.108Z,12.47
2022-12-09T18:39:21.578Z,12.23
2022-12-09T18:41:50.153Z,12.90
2022-12-09T18:44:18.282Z,12.37
2022-12-09T18:46:49.220Z,15.13
2022-12-09T18:49:18.940Z,15.67
2022-12-09T18:51:51.035Z,15.53
2022-12-09T18:54:21.028Z,16.00
2022-12-09T18:56:49.592Z,16.20
2022-12-09T18:59:18.682Z,15.10
2022-12-09T19:01:48.421Z,12.67
2022-12-09T19:04:20.378Z,13.23
2022-12-09T19:06:51.459Z,12.17
2022-12-09T19:09:21.248Z,12.23
2022-12-09T19:11:51.034Z,12.07
2022-12-09T19:14:21.191Z,12.33
2022-12-09T19:16:50.388Z,13.27
2022-12-09T19:19:21.082Z,15.03
2022-12-09T19:21:51.343Z,16.77
2022-12-09T19:24:22.769Z,17.23
2022-12-09T19:26:53.165Z,17.37
2022-12-09T19:29:25.017Z,16.30
2022-12-09T19:31:54.259Z,15.63
2022-12-09T19:34:24.809Z,15.50
2022-12-09T19:36:56.441Z,13.50
2022-12-09T19:39:29.002Z,12.83
2022-12-09T19:41:57.712Z,12.67
2022-12-09T19:44:52.669Z,12.43
2022-12-09T19:47:15.228Z,13.60
2022-12-09T19:49:44.448Z,14.50
2022-12-09T19:52:14.171Z,15.13
2022-12-09T19:54:42.250Z,15.13
2022-12-09T19:57:10.649Z,13.90
2022-12-09T19:59:39.163Z,13.40
2022-12-09T20:02:11.890Z,13.27
2022-12-09T20:04:48.832Z,12.03
2022-12-09T20:07:19.454Z,11.47
2022-12-09T20:09:47.632Z,11.67
2022-12-09T20:12:16.052Z,12.93
2022-12-09T20:14:44.291Z,12.13
2022-12-09T20:17:13.041Z,14.47
2022-12-09T20:19:41.654Z,15.80
2022-12-09T20:22:10.268Z,16.20
2022-12-09T20:24:39.771Z,14.90
2022-12-09T20:27:08.161Z,15.00
2022-12-09T20:29:38.232Z,14.23
2022-12-09T20:32:07.668Z,13.80
2022-12-09T20:34:36.621Z,13.50
2022-12-09T20:37:05.285Z,13.83
2022-12-09T20:39:33.849Z,14.97
2022-12-09T20:42:03.358Z,14.33
2022-12-09T20:44:32.811Z,14.57
2022-12-09T20:47:01.405Z,14.07
2022-12-09T20:49:30.290Z,14.93
2022-12-09T20:51:58.792Z,14.93
2022-12-09T20:54:27.001Z,15.37
2022-12-09T20:56:55.280Z,15.83
2022-12-09T20:59:25.255Z,14.60
2022-12-09T21:01:54.311Z,12.83
2022-12-09T21:04:23.106Z,12.80
2022-12-09T21:06:51.249Z,13.27
2022-12-09T21:09:22.292Z,12.27
2022-12-09T21:11:51.373Z,14.13
2022-12-09T21:14:20.442Z,13.27
2022-12-09T21:16:51.811Z,14.00
2022-12-09T21:19:25.376Z,13.27
2022-12-09T21:21:54.926Z,15.07
2022-12-09T21:24:24.642Z,14.00
2022-12-09T21:26:55.827Z,14.60
2022-12-09T21:29:29.819Z,13.90
2022-12-09T21:32:02.231Z,15.23
2022-12-09T21:34:31.123Z,16.77
2022-12-09T21:36:59.277Z,18.90
2022-12-09T21:39:28.744Z,20.13
2022-12-09T21:41:56.893Z,26.03
2022-12-09T21:44:27.494Z,24.10
2022-12-09T21:46:55.675Z,23.37
2022-12-09T21:49:25.444Z,21.07
2022-12-09T21:51:54.281Z,21.73
2022-12-09T21:54:22.879Z,19.07
2022-12-09T21:56:50.999Z,19.93
2022-12-09T21:59:19.144Z,17.63
2022-12-09T22:01:47.421Z,18.90
2022-12-09T22:04:17.364Z,19.73
2022-12-09T22:06:48.573Z,19.17
2022-12-09T22:09:17.779Z,17.07
2022-12-09T22:11:46.053Z,17.67
2022-12-09T22:14:14.668Z,16.07
2022-12-09T22:16:45.698Z,16.17
2022-12-09T22:19:16.591Z,16.17
2022-12-09T22:21:44.740Z,16.73
2022-12-09T22:24:15.508Z,15.63
2022-12-09T22:26:45.166Z,16.70
2022-12-09T22:29:15.294Z,15.63
2022-12-09T22:31:45.156Z,15.07
2022-12-09T22:34:15.772Z,15.33
2022-12-09T22:36:44.035Z,15.43
2022-12-09T22:39:16.479Z,14.57
2022-12-09T22:41:46.475Z,14.87
2022-12-09T22:44:17.068Z,13.73
2022-12-09T22:46:45.729Z,13.97
2022-12-09T22:49:16.410Z,13.37
2022-12-09T22:51:45.443Z,13.53
2022-12-09T22:54:15.622Z,15.00
2022-12-09T22:56:44.906Z,21.37
2022-12-09T22:59:15.233Z,23.17
2022-12-09T23:01:46.203Z,21.10
2022-12-09T23:04:16.158Z,20.90
2022-12-09T23:06:45.449Z,19.63
2022-12-09T23:09:18.026Z,19.83
2022-12-09T23:11:46.904Z,26.13
2022-12-09T23:14:16.445Z,25.03
2022-12-09T23:16:45.682Z,25.50
2022-12-09T23:19:14.610Z,22.10
2022-12-09T23:21:44.156Z,21.87
2022-12-09T23:24:19.720Z,17.93
2022-12-09T23:26:56.131Z,16.47
2022-12-09T23:29:25.127Z,15.27
2022-12-09T23:31:54.079Z,16.10
2022-12-09T23:34:22.707Z,15.30
2022-12-09T23:36:50.842Z,15.30
2022-12-09T23:39:20.226Z,15.03
2022-12-09T23:41:49.124Z,14.80
2022-12-09T23:44:20.044Z,14.90
2022-12-09T23:46:48.955Z,14.37
2022-12-09T23:49:17.584Z,15.00
2022-12-09T23:51:45.710Z,13.87
2022-12-09T23:54:16.021Z,14.20
2022-12-09T23:56:50.122Z,14.53
2022-12-09T23:59:21.651Z,13.30
